createdAt,value
2019-01-23T00:03:16.687Z,15.53
2019-01-23T00:05:58.168Z,18.02
2019-01-23T00:12:06.966Z,15.85
2019-01-23T00:17:49.330Z,15.98
2019-01-23T00:20:20.000Z,16.60
2019-01-23T00:23:29.466Z,20.32
2019-01-23T00:26:29.804Z,18.95
2019-01-23T00:29:10.866Z,18.35
2019-01-23T00:31:52.587Z,17.37
2019-01-23T00:40:27.955Z,17.87
2019-01-23T00:43:37.031Z,20.00
2019-01-23T00:46:18.135Z,16.93
2019-01-23T00:49:07.522Z,17.32
2019-01-23T00:52:16.700Z,17.15
2019-01-23T00:55:26.143Z,18.80
2019-01-23T01:01:28.339Z,20.37
2019-01-23T01:04:09.391Z,22.58
2019-01-23T01:07:18.548Z,17.95
2019-01-23T01:10:19.305Z,20.32
2019-01-23T01:16:01.636Z,18.95
2019-01-23T01:19:10.785Z,17.05
2019-01-23T01:27:55.174Z,17.25
2019-01-23T01:33:38.381Z,16.95
2019-01-23T01:36:27.649Z,17.20
2019-01-23T01:39:16.999Z,17.17
2019-01-23T01:42:06.923Z,17.92
2019-01-23T01:45:07.699Z,17.75
2019-01-23T01:47:56.887Z,17.52
2019-01-23T01:51:04.779Z,16.95
2019-01-23T01:54:13.943Z,19.77
2019-01-23T01:56:55.742Z,20.65
2019-01-23T02:00:05.091Z,19.75
2019-01-23T02:06:06.448Z,19.55
2019-01-23T02:08:48.300Z,18.10
2019-01-23T02:11:37.804Z,18.45
2019-01-23T02:14:27.173Z,18.67
2019-01-23T02:19:50.820Z,22.45
2019-01-23T02:31:33.274Z,17.32
2019-01-23T02:34:41.215Z,15.43
2019-01-23T02:37:22.945Z,18.02
2019-01-23T02:40:04.647Z,20.95
2019-01-23T02:42:46.343Z,16.55
2019-01-23T02:45:46.869Z,21.02
2019-01-23T02:48:28.157Z,16.48
2019-01-23T02:51:37.268Z,18.87
2019-01-23T02:54:26.495Z,15.83
2019-01-23T02:57:36.797Z,17.92
2019-01-23T03:03:26.542Z,19.55
2019-01-23T03:06:08.462Z,16.27
2019-01-23T03:08:59.298Z,20.65
2019-01-23T03:11:51.535Z,17.75
2019-01-23T03:15:01.066Z,16.37
2019-01-23T03:17:50.407Z,19.23
2019-01-23T03:20:51.743Z,19.87
2019-01-23T03:23:33.834Z,14.58
2019-01-23T03:26:04.965Z,17.35
2019-01-23T03:29:13.109Z,17.57
2019-01-23T03:34:57.890Z,18.10
2019-01-23T03:37:47.231Z,21.27
2019-01-23T03:40:28.831Z,19.50
2019-01-23T03:42:59.243Z,17.45
2019-01-23T03:45:40.930Z,15.13
2019-01-23T03:48:12.450Z,17.05
2019-01-23T03:51:23.581Z,17.62
2019-01-23T03:54:05.773Z,16.60
2019-01-23T03:56:57.860Z,17.37
2019-01-23T03:59:32.241Z,17.40
2019-01-23T04:02:21.933Z,17.50
2019-01-23T04:05:03.551Z,16.67
2019-01-23T04:11:15.938Z,17.70
2019-01-23T04:14:06.676Z,20.25
2019-01-23T04:16:37.451Z,14.50
2019-01-23T04:19:08.015Z,16.70
2019-01-23T04:24:31.903Z,16.85
2019-01-23T04:27:02.619Z,18.62
2019-01-23T04:32:55.291Z,17.45
2019-01-23T04:35:45.685Z,22.80
2019-01-23T04:38:16.156Z,18.70
2019-01-23T04:41:05.570Z,22.02
2019-01-23T04:44:14.757Z,16.05
2019-01-23T04:50:13.763Z,18.23
2019-01-23T04:55:57.496Z,16.52
2019-01-23T04:58:39.285Z,17.65
2019-01-23T05:04:21.580Z,19.98
2019-01-23T05:10:39.672Z,18.92
2019-01-23T05:13:10.749Z,16.60
2019-01-23T05:21:52.482Z,18.77
2019-01-23T05:24:41.386Z,20.37
2019-01-23T05:27:30.603Z,16.60
2019-01-23T05:33:03.560Z,17.62
2019-01-23T05:38:43.143Z,18.27
2019-01-23T05:41:15.487Z,16.55
2019-01-23T05:44:23.141Z,18.62
2019-01-23T05:50:11.715Z,16.52
2019-01-23T05:53:00.717Z,17.95
2019-01-23T05:55:30.849Z,16.90
2019-01-23T05:58:21.292Z,15.88
2019-01-23T06:00:51.458Z,18.90
2019-01-23T06:03:33.178Z,17.10
2019-01-23T06:09:40.304Z,14.95
2019-01-23T06:12:12.933Z,17.00
2019-01-23T06:18:13.524Z,18.73
2019-01-23T06:20:43.902Z,15.30
2019-01-23T06:23:32.840Z,16.82
2019-01-23T06:26:13.726Z,17.92
2019-01-23T06:28:44.871Z,20.50
2019-01-23T06:31:16.366Z,20.10
2019-01-23T06:34:23.916Z,18.67
2019-01-23T06:39:48.180Z,16.77
2019-01-23T06:42:37.024Z,18.30
2019-01-23T06:45:18.501Z,18.57
2019-01-23T06:47:49.546Z,20.12
2019-01-23T06:50:21.404Z,20.50
2019-01-23T06:53:02.770Z,19.23
2019-01-23T06:55:44.254Z,17.62
2019-01-23T06:58:25.529Z,19.10
2019-01-23T07:01:07.313Z,17.52
2019-01-23T07:03:56.361Z,21.05
2019-01-23T07:06:30.178Z,16.65
2019-01-23T07:09:05.642Z,18.52
2019-01-23T07:14:41.167Z,17.62
2019-01-23T07:17:49.191Z,15.38
2019-01-23T07:21:00.092Z,21.10
2019-01-23T07:29:42.233Z,17.02
2019-01-23T07:32:12.898Z,21.52
2019-01-23T07:34:43.421Z,20.10
2019-01-23T07:43:18.787Z,25.82
2019-01-23T07:45:59.918Z,24.15
2019-01-23T07:48:41.382Z,24.85
2019-01-23T07:57:21.713Z,22.73
2019-01-23T07:59:55.715Z,25.52
2019-01-23T08:05:34.718Z,26.27
2019-01-23T08:11:17.636Z,27.62
2019-01-23T08:14:09.231Z,35.30
2019-01-23T08:16:58.065Z,29.45
2019-01-23T08:19:47.151Z,22.90
2019-01-23T08:22:21.529Z,27.37
2019-01-23T08:24:51.580Z,27.32
2019-01-23T08:27:21.662Z,26.60
2019-01-23T08:29:52.997Z,32.53
2019-01-23T08:32:24.993Z,28.62
2019-01-23T08:34:55.310Z,43.78
2019-01-23T08:37:25.175Z,32.98
2019-01-23T08:39:56.588Z,28.75
2019-01-23T08:42:45.599Z,29.42
2019-01-23T08:45:27.134Z,31.57
2019-01-23T08:47:58.686Z,31.82
2019-01-23T08:50:47.645Z,26.90
2019-01-23T08:53:38.030Z,28.90
2019-01-23T08:56:28.841Z,28.30
2019-01-23T08:59:18.046Z,29.50
2019-01-23T09:02:07.424Z,65.22
2019-01-23T09:04:37.808Z,33.70
2019-01-23T09:07:26.760Z,33.40
2019-01-23T09:10:17.154Z,32.10
2019-01-23T09:12:47.795Z,35.45
2019-01-23T09:15:36.742Z,46.00
2019-01-23T09:18:27.966Z,39.58
2019-01-23T09:20:59.301Z,37.65
2019-01-23T09:23:50.037Z,30.15
2019-01-23T09:26:20.645Z,25.48
2019-01-23T09:28:50.712Z,26.20
2019-01-23T09:31:42.483Z,27.60
2019-01-23T09:34:45.932Z,28.52
2019-01-23T09:37:53.536Z,41.23
2019-01-23T09:40:45.928Z,34.63
2019-01-23T09:47:16.852Z,37.53
2019-01-23T09:50:34.124Z,30.62
2019-01-23T09:53:30.032Z,35.58
2019-01-23T09:59:04.206Z,33.88
2019-01-23T10:01:44.705Z,26.82
2019-01-23T10:04:17.659Z,26.27
2019-01-23T10:07:27.334Z,79.72
2019-01-23T10:10:00.816Z,34.15
2019-01-23T10:12:31.741Z,45.00
2019-01-23T10:15:05.010Z,46.83
2019-01-23T10:17:56.608Z,37.15
2019-01-23T10:20:45.979Z,34.03
2019-01-23T10:23:38.166Z,31.45
2019-01-23T10:26:27.893Z,31.75
2019-01-23T10:29:09.469Z,31.30
2019-01-23T10:31:51.170Z,30.08
2019-01-23T10:34:41.791Z,27.35
2019-01-23T10:37:12.698Z,35.05
2019-01-23T10:39:44.027Z,31.02
2019-01-23T10:42:33.120Z,31.60
2019-01-23T10:45:23.913Z,35.03
2019-01-23T10:48:04.670Z,34.40
2019-01-23T10:50:45.685Z,31.75
2019-01-23T10:53:57.889Z,30.12
2019-01-23T10:56:48.160Z,32.40
2019-01-23T11:05:10.992Z,30.05
2019-01-23T11:08:01.705Z,32.70
2019-01-23T11:10:34.804Z,26.87
2019-01-23T11:13:10.752Z,31.82
2019-01-23T11:15:40.792Z,36.40
2019-01-23T11:18:14.910Z,36.68
2019-01-23T11:20:45.873Z,29.70
2019-01-23T11:23:26.346Z,31.00
2019-01-23T11:26:06.857Z,30.45
2019-01-23T11:28:36.873Z,30.80
2019-01-23T11:31:20.324Z,28.57
2019-01-23T11:33:47.688Z,32.13
2019-01-23T11:36:18.050Z,31.70
2019-01-23T11:38:48.693Z,28.75
2019-01-23T11:41:58.000Z,29.55
2019-01-23T11:45:05.870Z,26.27
2019-01-23T11:47:42.573Z,28.90
2019-01-23T11:50:21.291Z,26.23
2019-01-23T11:52:52.867Z,30.15
2019-01-23T11:58:40.493Z,31.07
2019-01-23T12:01:51.599Z,30.95
2019-01-23T12:04:42.273Z,36.50
2019-01-23T12:07:51.726Z,29.77
2019-01-23T12:10:25.415Z,28.95
2019-01-23T12:16:11.880Z,27.42
2019-01-23T12:19:13.122Z,27.07
2019-01-23T12:21:54.163Z,25.85
2019-01-23T12:24:36.133Z,29.32
2019-01-23T12:30:35.458Z,31.97
2019-01-23T12:33:25.500Z,31.42
2019-01-23T12:39:25.639Z,29.23
2019-01-23T12:45:20.956Z,25.92
2019-01-23T12:47:59.092Z,30.45
2019-01-23T12:50:33.364Z,26.42
2019-01-23T12:53:22.535Z,25.60
2019-01-23T12:56:13.628Z,27.62
2019-01-23T13:02:15.075Z,29.92
2019-01-23T13:08:00.446Z,28.10
2019-01-23T13:11:11.050Z,25.72
2019-01-23T13:13:43.751Z,27.58
2019-01-23T13:16:21.555Z,25.80
2019-01-23T13:18:54.284Z,26.30
2019-01-23T13:21:25.197Z,25.95
2019-01-23T13:27:06.885Z,26.70
2019-01-23T13:36:32.653Z,28.12
2019-01-23T13:42:30.255Z,22.95
2019-01-23T13:45:06.918Z,29.20
2019-01-23T13:48:16.120Z,25.70
2019-01-23T13:50:50.198Z,25.60
2019-01-23T13:53:31.847Z,28.05
2019-01-23T13:56:03.506Z,25.85
2019-01-23T13:58:41.924Z,27.77
2019-01-23T14:01:15.877Z,30.45
2019-01-23T14:03:49.440Z,29.63
2019-01-23T14:06:22.122Z,31.93
2019-01-23T14:08:53.360Z,35.60
2019-01-23T14:11:43.053Z,34.50
2019-01-23T14:14:32.523Z,36.33
2019-01-23T14:17:16.936Z,38.63
2019-01-23T14:19:58.154Z,41.28
2019-01-23T14:22:40.219Z,40.33
2019-01-23T14:31:29.195Z,43.28
2019-01-23T14:34:10.832Z,42.60
2019-01-23T14:39:44.147Z,48.98
2019-01-23T14:42:16.405Z,48.98
2019-01-23T14:44:47.371Z,50.15
2019-01-23T14:47:18.549Z,47.10
2019-01-23T14:49:50.440Z,43.38
2019-01-23T14:52:21.058Z,44.15
2019-01-23T14:54:51.204Z,52.15
2019-01-23T14:57:21.702Z,46.10
2019-01-23T14:59:58.136Z,54.20
2019-01-23T15:02:29.342Z,50.33
2019-01-23T15:05:04.072Z,55.70
2019-01-23T15:07:35.804Z,51.95
2019-01-23T15:10:08.948Z,50.55
2019-01-23T15:12:41.679Z,47.23
2019-01-23T15:15:28.544Z,49.45
2019-01-23T15:18:03.992Z,49.80
2019-01-23T15:20:43.538Z,47.80
2019-01-23T15:23:15.349Z,48.98
2019-01-23T15:25:45.865Z,47.75
2019-01-23T15:28:16.710Z,44.15
2019-01-23T15:33:46.134Z,50.65
2019-01-23T15:36:21.706Z,49.05
2019-01-23T15:38:52.094Z,48.83
2019-01-23T15:41:22.368Z,46.23
2019-01-23T15:43:56.167Z,44.88
2019-01-23T15:46:26.011Z,43.60
2019-01-23T15:48:56.609Z,43.15
2019-01-23T15:51:27.254Z,43.20
2019-01-23T15:53:58.396Z,47.08
2019-01-23T15:56:28.743Z,47.67
2019-01-23T15:58:59.243Z,44.95
2019-01-23T16:01:29.358Z,42.73
2019-01-23T16:04:07.363Z,51.37
2019-01-23T16:06:37.302Z,44.15
2019-01-23T16:09:08.247Z,41.33
2019-01-23T16:11:38.088Z,48.00
2019-01-23T16:14:08.455Z,42.78
2019-01-23T16:16:38.329Z,44.88
2019-01-23T16:19:08.106Z,43.17
2019-01-23T16:21:38.108Z,44.05
2019-01-23T16:24:08.340Z,47.23
2019-01-23T16:26:38.647Z,40.40
2019-01-23T16:29:11.619Z,45.70
2019-01-23T16:31:41.433Z,48.52
2019-01-23T16:34:11.550Z,46.63
2019-01-23T16:36:41.879Z,44.63
2019-01-23T16:39:12.186Z,45.70
2019-01-23T16:41:42.148Z,48.13
2019-01-23T16:44:12.554Z,50.55
2019-01-23T16:46:42.515Z,49.85
2019-01-23T16:49:12.505Z,46.55
2019-01-23T16:51:42.559Z,45.17
2019-01-23T16:54:12.995Z,48.98
2019-01-23T16:56:43.184Z,44.23
2019-01-23T16:59:13.582Z,44.55
2019-01-23T17:01:44.002Z,47.53
2019-01-23T17:04:14.085Z,46.73
2019-01-23T17:06:44.398Z,51.40
2019-01-23T17:09:14.390Z,42.53
2019-01-23T17:11:44.491Z,49.08
2019-01-23T17:14:14.403Z,45.98
2019-01-23T17:16:44.591Z,46.50
2019-01-23T17:19:14.828Z,43.85
2019-01-23T17:21:45.290Z,49.08
2019-01-23T17:24:54.189Z,50.12
2019-01-23T17:33:37.287Z,49.23
2019-01-23T17:36:47.973Z,44.55
2019-01-23T17:39:38.186Z,46.40
2019-01-23T17:42:09.224Z,46.63
2019-01-23T17:44:39.721Z,41.88
2019-01-23T17:47:13.273Z,38.42
2019-01-23T17:49:43.479Z,38.83
2019-01-23T17:52:14.515Z,45.63
2019-01-23T17:54:47.566Z,46.63
2019-01-23T17:57:17.626Z,43.92
2019-01-23T17:59:47.683Z,59.83
2019-01-23T18:02:22.502Z,51.30
2019-01-23T18:04:52.797Z,47.40
2019-01-23T18:07:22.834Z,42.05
2019-01-23T18:09:55.992Z,54.63
2019-01-23T18:12:26.064Z,76.50
2019-01-23T18:14:59.988Z,81.72
2019-01-23T18:17:30.355Z,60.67
2019-01-23T18:20:02.533Z,58.05
2019-01-23T18:22:34.171Z,54.80
2019-01-23T18:25:07.930Z,57.95
2019-01-23T18:27:42.101Z,54.53
2019-01-23T18:30:17.870Z,52.43
2019-01-23T18:32:51.875Z,52.75
2019-01-23T18:36:16.597Z,48.92
2019-01-23T18:39:14.656Z,56.28
2019-01-23T18:42:11.847Z,56.73
2019-01-23T18:45:19.195Z,61.90
2019-01-23T18:48:39.426Z,48.78
2019-01-23T18:51:27.831Z,62.23
2019-01-23T18:54:01.492Z,62.58
2019-01-23T18:56:33.824Z,59.30
2019-01-23T18:59:06.885Z,60.90
2019-01-23T19:01:39.058Z,68.72
2019-01-23T19:04:13.286Z,74.55
2019-01-23T19:06:52.666Z,76.15
2019-01-23T19:09:28.488Z,81.10
2019-01-23T19:12:05.135Z,81.50
2019-01-23T19:14:38.813Z,82.80
2019-01-23T19:17:18.881Z,77.50
2019-01-23T19:19:51.312Z,76.35
2019-01-23T19:22:24.407Z,80.57
2019-01-23T19:24:57.103Z,86.75
2019-01-23T19:27:29.313Z,91.92
2019-01-23T19:30:09.243Z,76.12
2019-01-23T19:32:42.629Z,94.32
2019-01-23T19:35:22.209Z,88.12
2019-01-23T19:41:37.966Z,80.45
2019-01-23T19:44:20.114Z,81.95
2019-01-23T19:49:51.479Z,81.17
2019-01-23T19:52:52.439Z,79.75
2019-01-23T19:55:36.392Z,89.32
2019-01-23T19:58:21.407Z,88.60
2019-01-23T20:00:59.406Z,83.70
2019-01-23T20:03:33.644Z,91.42
2019-01-23T20:06:11.652Z,101.65
2019-01-23T20:12:43.636Z,95.53
2019-01-23T20:15:26.314Z,87.78
2019-01-23T20:18:11.577Z,96.70
2019-01-23T20:20:54.076Z,91.95
2019-01-23T20:23:47.379Z,83.15
2019-01-23T20:26:33.811Z,84.60
2019-01-23T20:29:08.134Z,89.50
2019-01-23T20:31:46.266Z,82.15
2019-01-23T20:34:24.756Z,84.50
2019-01-23T20:37:03.449Z,90.92
2019-01-23T20:39:37.075Z,82.95
2019-01-23T20:42:10.792Z,78.70
2019-01-23T20:44:44.513Z,89.47
2019-01-23T20:47:20.862Z,81.40
2019-01-23T20:49:54.816Z,89.20
2019-01-23T20:52:28.468Z,85.20
2019-01-23T20:55:03.299Z,82.92
2019-01-23T20:57:41.334Z,81.08
2019-01-23T21:00:23.644Z,78.80
2019-01-23T21:02:57.392Z,84.95
2019-01-23T21:05:30.813Z,73.67
2019-01-23T21:08:02.981Z,78.55
2019-01-23T21:10:38.553Z,80.55
2019-01-23T21:13:09.365Z,79.42
2019-01-23T21:15:40.258Z,73.45
2019-01-23T21:18:11.219Z,74.42
2019-01-23T21:20:45.462Z,75.28
2019-01-23T21:23:22.473Z,71.82
2019-01-23T21:25:53.103Z,65.80
2019-01-23T21:28:23.663Z,80.35
2019-01-23T21:31:00.099Z,67.25
2019-01-23T21:33:33.034Z,64.92
2019-01-23T21:36:04.386Z,68.60
2019-01-23T21:38:34.803Z,66.00
2019-01-23T21:41:05.239Z,70.28
2019-01-23T21:47:05.708Z,66.92
2019-01-23T21:49:48.549Z,63.63
2019-01-23T21:52:20.078Z,61.30
2019-01-23T21:58:53.772Z,56.65
2019-01-23T22:01:44.456Z,61.55
2019-01-23T22:07:44.576Z,54.75
2019-01-23T22:10:14.892Z,58.20
2019-01-23T22:12:44.858Z,57.00
2019-01-23T22:15:20.206Z,59.48
2019-01-23T22:17:56.989Z,60.08
2019-01-23T22:20:45.876Z,57.50
2019-01-23T22:26:35.609Z,57.67
2019-01-23T22:32:09.274Z,59.48
2019-01-23T22:34:40.069Z,68.85
2019-01-23T22:37:10.484Z,71.53
2019-01-23T22:39:41.113Z,71.35
2019-01-23T22:42:13.097Z,66.25
2019-01-23T22:44:44.014Z,65.67
2019-01-23T22:47:14.087Z,72.15
2019-01-23T22:49:44.461Z,67.12
2019-01-23T22:52:25.823Z,55.33
2019-01-23T22:55:08.107Z,62.48
2019-01-23T22:57:52.804Z,71.92
2019-01-23T23:00:38.148Z,57.27
2019-01-23T23:03:23.562Z,61.90
2019-01-23T23:06:05.650Z,59.85
2019-01-23T23:08:48.121Z,55.70
2019-01-23T23:14:19.085Z,59.35
2019-01-23T23:17:28.255Z,51.58
2019-01-23T23:20:19.219Z,55.03
2019-01-23T23:37:38.730Z,54.53
2019-01-23T23:43:23.851Z,52.70
2019-01-23T23:46:33.143Z,50.17
2019-01-23T23:49:32.893Z,52.17
2019-01-23T23:52:14.639Z,56.18
2019-01-23T23:55:15.760Z,52.08
2019-01-23T23:57:56.149Z,53.92
